Time;durP1;ratioP1;P1;durP2;ratioP2;P2;SDS_P1;SDS_P2;PMS_P1;PMS_P2;Temp;Humidity;BMP_temperature;BMP_pressure;BME280_temperature;BME280_humidity;BME280_pressure;Samples;Min_cycle;Max_cycle;Signal;HPM_P1;HPM_P2
2022/04/08 00:00:15;;;;;;;0.00;0.00;;;5.30;99.90;;;;;;5023944;28;20129;-64
2022/04/08 00:02:41;;;;;;;0.00;0.00;;;5.30;99.90;;;;;;5035491;28;20045;-64
2022/04/08 00:05:07;;;;;;;0.00;0.00;;;5.30;99.90;;;;;;5039050;28;20408;-64
2022/04/08 00:07:33;;;;;;;0.00;0.00;;;5.30;99.90;;;;;;5023931;28;20042;-64
2022/04/08 00:09:59;;;;;;;0.00;0.00;;;5.30;99.90;;;;;;5023829;28;20053;-64
2022/04/08 00:12:24;;;;;;;0.00;0.00;;;6.30;99.90;;;;;;5024241;28;20732;-64
2022/04/08 00:14:50;;;;;;;0.00;0.00;;;5.30;99.90;;;;;;5023315;28;20038;-66
2022/04/08 00:17:15;;;;;;;0.00;0.00;;;5.30;99.90;;;;;;5022913;28;20551;-64
2022/04/08 00:19:41;;;;;;;0.00;0.00;;;5.30;99.90;;;;;;5023926;28;20041;-65
2022/04/08 00:22:07;;;;;;;0.00;0.00;;;5.30;99.90;;;;;;5023432;28;20053;-65
2022/04/08 00:24:33;;;;;;;0.00;0.00;;;5.30;99.90;;;;;;5023661;28;20064;-65
2022/04/08 00:26:59;;;;;;;0.00;0.00;;;5.30;99.90;;;;;;5023532;28;20037;-63
2022/04/08 00:29:24;;;;;;;0.00;0.00;;;5.30;99.90;;;;;;5023350;28;20041;-63
2022/04/08 00:31:57;;;;;;;0.00;0.00;;;5.30;99.90;;;;;;5037556;28;20091;-65
2022/04/08 00:34:24;;;;;;;0.00;0.00;;;5.20;99.90;;;;;;5023684;28;20053;-65
2022/04/08 00:36:49;;;;;;;0.00;0.00;;;5.20;99.90;;;;;;5023317;28;20038;-65
2022/04/08 00:39:15;;;;;;;0.00;0.00;;;5.20;99.90;;;;;;5022406;28;20053;-65
2022/04/08 00:41:40;;;;;;;0.00;0.00;;;5.20;99.90;;;;;;5023528;28;20132;-64
2022/04/08 00:44:06;;;;;;;0.00;0.00;;;5.10;99.90;;;;;;5023544;28;20401;-65
2022/04/08 00:46:32;;;;;;;0.00;0.00;;;5.00;99.90;;;;;;5023667;28;20045;-62
2022/04/08 00:48:57;;;;;;;0.00;0.00;;;5.00;99.90;;;;;;5021267;28;20803;-64
2022/04/08 00:51:23;;;;;;;0.00;0.00;;;4.90;99.90;;;;;;5023646;28;20049;-65
2022/04/08 00:53:49;;;;;;;0.00;0.00;;;4.80;99.90;;;;;;5022339;28;20991;-65
2022/04/08 00:56:15;;;;;;;0.00;0.00;;;4.60;99.90;;;;;;5022829;28;20056;-65
2022/04/08 00:58:42;;;;;;;0.00;0.00;;;4.40;99.90;;;;;;5022754;28;20492;-65
2022/04/08 01:01:08;;;;;;;0.00;0.00;;;4.30;99.90;;;;;;5025527;28;20062;-66
2022/04/08 01:03:33;;;;;;;0.00;0.00;;;4.30;99.90;;;;;;5032204;28;20038;-65
2022/04/08 01:05:59;;;;;;;0.00;0.00;;;4.20;99.90;;;;;;5022184;28;20053;-65
2022/04/08 01:08:25;;;;;;;0.00;0.00;;;4.10;99.90;;;;;;5022308;28;20383;-65
2022/04/08 01:10:52;;;;;;;0.00;0.00;;;4.00;99.90;;;;;;5022526;28;20053;-65
2022/04/08 01:13:18;;;;;;;0.00;0.00;;;3.90;99.90;;;;;;5022739;28;20049;-65
2022/04/08 01:15:44;;;;;;;0.00;0.00;;;4.20;99.90;;;;;;5022635;28;20053;-65
2022/04/08 01:18:10;;;;;;;0.00;0.00;;;3.90;99.90;;;;;;5023047;28;20041;-66
2022/04/08 01:20:36;;;;;;;0.00;0.00;;;3.90;99.90;;;;;;5022714;28;20045;-66
2022/04/08 01:23:01;;;;;;;0.00;0.00;;;3.90;99.90;;;;;;5021611;28;20128;-66
2022/04/08 01:25:27;;;;;;;0.00;0.00;;;3.90;99.90;;;;;;5022718;28;20099;-64
2022/04/08 01:27:53;;;;;;;0.00;0.00;;;3.90;99.90;;;;;;5022385;28;20503;-65
2022/04/08 01:30:18;;;;;;;0.00;0.00;;;4.00;99.90;;;;;;5022776;28;20042;-65
2022/04/08 01:32:45;;;;;;;0.00;0.00;;;4.00;99.90;;;;;;5020940;28;20076;-62
2022/04/08 01:35:11;;;;;;;0.00;0.00;;;3.90;99.90;;;;;;5022751;28;20041;-65
2022/04/08 01:37:36;;;;;;;0.00;0.00;;;3.90;99.90;;;;;;5021714;28;20396;-65
2022/04/08 01:40:02;;;;;;;0.00;0.00;;;3.90;99.90;;;;;;5022274;28;20044;-65
2022/04/08 01:42:28;;;;;;;0.00;0.00;;;3.90;99.90;;;;;;5022621;28;20049;-65
2022/04/08 01:44:54;;;;;;;0.00;0.00;;;3.80;99.90;;;;;;5022051;28;20044;-64
2022/04/08 01:47:21;;;;;;;0.00;0.00;;;3.80;99.90;;;;;;5022522;28;20049;-65
2022/04/08 01:49:47;;;;;;;0.00;0.00;;;3.90;99.90;;;;;;5003797;28;20045;-65
2022/04/08 01:52:12;;;;;;;0.00;0.00;;;3.80;99.90;;;;;;5022503;28;20095;-65
2022/04/08 01:54:39;;;;;;;0.00;0.00;;;3.80;99.90;;;;;;5021475;28;20087;-65
2022/04/08 01:57:04;;;;;;;0.00;0.00;;;3.70;99.90;;;;;;5022367;28;20624;-65
2022/04/08 01:59:30;;;;;;;0.00;0.00;;;3.70;99.90;;;;;;5022591;28;20037;-65
2022/04/08 02:01:59;;;;;;;0.00;0.00;;;3.70;99.90;;;;;;5029277;28;20098;-65
2022/04/08 02:04:25;;;;;;;0.00;0.00;;;3.70;99.90;;;;;;5023743;28;20055;-65
2022/04/08 02:06:51;;;;;;;0.00;0.00;;;3.70;99.90;;;;;;5020894;28;20073;-65
2022/04/08 02:09:18;;;;;;;0.00;0.00;;;3.70;99.90;;;;;;5019642;28;20100;-65
2022/04/08 02:11:44;;;;;;;0.00;0.00;;;3.70;99.90;;;;;;5021700;28;20118;-65
2022/04/08 02:14:10;;;;;;;0.00;0.00;;;3.70;99.90;;;;;;5021443;28;20037;-65
2022/04/08 02:16:35;;;;;;;0.00;0.00;;;3.70;99.90;;;;;;5021744;28;20045;-65
2022/04/08 02:19:01;;;;;;;0.00;0.00;;;3.70;99.90;;;;;;5021907;28;20045;-65
2022/04/08 02:21:27;;;;;;;0.00;0.00;;;3.70;99.90;;;;;;5021753;28;20070;-65
2022/04/08 02:23:53;;;;;;;0.00;0.00;;;3.70;99.90;;;;;;5020407;28;20111;-65
2022/04/08 02:26:19;;;;;;;0.00;0.00;;;3.80;99.90;;;;;;5020502;28;20056;-64
2022/04/08 02:28:45;;;;;;;0.00;0.00;;;3.80;99.90;;;;;;5021166;28;20053;-65
2022/04/08 02:31:12;;;;;;;0.00;0.00;;;3.80;99.90;;;;;;5021177;28;20033;-66
2022/04/08 02:33:37;;;;;;;0.00;0.00;;;3.80;99.90;;;;;;5021556;28;20049;-65
2022/04/08 02:36:04;;;;;;;0.00;0.00;;;3.80;99.90;;;;;;5036887;28;20072;-65
2022/04/08 02:38:30;;;;;;;0.00;0.00;;;3.80;99.90;;;;;;5036176;28;20045;-65
2022/04/08 02:40:55;;;;;;;0.00;0.00;;;3.80;99.90;;;;;;5020658;28;20052;-64
2022/04/08 02:43:22;;;;;;;0.00;0.00;;;3.80;99.90;;;;;;5021688;28;20095;-65
2022/04/08 02:45:48;;;;;;;0.10;0.10;;;3.70;99.90;;;;;;5020913;28;20045;-67
2022/04/08 02:48:14;;;;;;;0.00;0.00;;;3.80;99.90;;;;;;5020859;28;20037;-65
2022/04/08 02:50:42;;;;;;;0.00;0.00;;;3.70;99.90;;;;;;5020988;28;20042;-63
2022/04/08 02:53:08;;;;;;;0.00;0.00;;;3.90;99.90;;;;;;5019994;28;20041;-66
2022/04/08 02:55:35;;;;;;;0.00;0.00;;;3.70;99.90;;;;;;5021730;28;20136;-65
2022/04/08 02:58:04;;;;;;;0.00;0.00;;;3.70;99.90;;;;;;5020973;28;20723;-65
2022/04/08 03:00:30;;;;;;;0.00;0.00;;;3.80;99.90;;;;;;5021334;28;20037;-64
2022/04/08 03:02:56;;;;;;;0.00;0.00;;;3.80;99.90;;;;;;5031802;28;20052;-64
2022/04/08 03:05:21;;;;;;;0.00;0.00;;;3.80;99.90;;;;;;5035822;28;20641;-63
2022/04/08 03:07:47;;;;;;;0.00;0.00;;;3.80;99.90;;;;;;5019549;28;20128;-65
2022/04/08 03:10:13;;;;;;;0.00;0.00;;;3.70;99.90;;;;;;5020815;28;20174;-63
2022/04/08 03:12:39;;;;;;;0.00;0.00;;;3.60;99.90;;;;;;5021118;28;20041;-63
2022/04/08 03:15:05;;;;;;;0.00;0.00;;;3.60;99.90;;;;;;5020591;28;20052;-60
2022/04/08 03:17:31;;;;;;;0.00;0.00;;;3.50;99.90;;;;;;5021389;28;20755;-65
2022/04/08 03:19:57;;;;;;;0.00;0.00;;;3.50;99.90;;;;;;5020422;28;20112;-65
2022/04/08 03:22:23;;;;;;;0.00;0.00;;;3.70;99.90;;;;;;5019816;28;20112;-65
2022/04/08 03:24:51;;;;;;;0.00;0.00;;;3.50;99.90;;;;;;5020577;28;20125;-64
2022/04/08 03:27:17;;;;;;;0.00;0.00;;;3.60;99.90;;;;;;5021086;28;20051;-63
2022/04/08 03:29:43;;;;;;;0.00;0.00;;;3.60;99.90;;;;;;5020562;28;20722;-63
2022/04/08 03:32:09;;;;;;;0.00;0.00;;;3.60;99.90;;;;;;5019061;28;20041;-62
2022/04/08 03:34:35;;;;;;;0.00;0.00;;;3.50;99.90;;;;;;5020974;28;20066;-62
2022/04/08 03:37:01;;;;;;;0.00;0.00;;;3.40;99.90;;;;;;5020182;28;20041;-65
2022/04/08 03:39:26;;;;;;;0.00;0.00;;;3.40;99.90;;;;;;5019245;28;20056;-63
2022/04/08 03:41:53;;;;;;;0.00;0.00;;;3.30;99.90;;;;;;5020483;28;20037;-65
2022/04/08 03:44:19;;;;;;;0.00;0.00;;;3.30;99.90;;;;;;5021046;28;20042;-65
2022/04/08 03:46:46;;;;;;;0.00;0.00;;;3.30;99.90;;;;;;5020211;28;20048;-63
2022/04/08 03:49:14;;;;;;;0.00;0.00;;;3.30;99.90;;;;;;5020187;28;20046;-63
2022/04/08 03:51:44;;;;;;;0.00;0.00;;;3.30;99.90;;;;;;5020566;28;20089;-61
2022/04/08 03:54:10;;;;;;;0.00;0.00;;;3.30;99.90;;;;;;5020420;28;20047;-63
2022/04/08 03:56:36;;;;;;;0.00;0.00;;;3.30;99.90;;;;;;5018830;28;20049;-63
2022/04/08 03:59:02;;;;;;;0.00;0.00;;;3.40;99.90;;;;;;5020972;28;20428;-63
2022/04/08 04:01:28;;;;;;;0.00;0.00;;;3.40;99.90;;;;;;5024238;28;20443;-63
2022/04/08 04:03:53;;;;;;;0.00;0.00;;;3.30;99.90;;;;;;5025587;28;20045;-64
2022/04/08 04:06:19;;;;;;;0.00;0.00;;;3.40;99.90;;;;;;5023276;28;20983;-64
2022/04/08 04:08:45;;;;;;;0.00;0.00;;;4.60;99.90;;;;;;5023018;28;20057;-63
2022/04/08 04:11:20;;;;;;;0.00;0.00;;;3.30;99.90;;;;;;5023937;28;20060;-63
2022/04/08 04:13:46;;;;;;;0.10;0.10;;;3.20;99.90;;;;;;5022045;28;20049;-63
2022/04/08 04:16:11;;;;;;;0.00;0.00;;;3.20;99.90;;;;;;5024181;28;20048;-64
2022/04/08 04:18:37;;;;;;;0.00;0.00;;;3.20;99.90;;;;;;5023933;28;20041;-63
2022/04/08 04:21:04;;;;;;;0.00;0.00;;;3.20;99.90;;;;;;5023651;28;20046;-63
2022/04/08 04:23:31;;;;;;;0.00;0.00;;;3.20;99.90;;;;;;5023373;28;20117;-63
2022/04/08 04:25:57;;;;;;;0.00;0.00;;;3.30;99.90;;;;;;5023360;28;20522;-63
2022/04/08 04:28:23;;;;;;;0.00;0.00;;;3.30;99.90;;;;;;5023956;28;20128;-64
2022/04/08 04:30:49;;;;;;;0.00;0.00;;;3.30;99.90;;;;;;5022906;28;20045;-63
2022/04/08 04:33:14;;;;;;;0.00;0.00;;;3.40;99.90;;;;;;5023744;28;20083;-63
2022/04/08 04:35:40;;;;;;;0.00;0.00;;;3.30;99.90;;;;;;5038695;28;20678;-64
2022/04/08 04:38:06;;;;;;;0.00;0.00;;;3.20;99.90;;;;;;5022317;28;20045;-63
2022/04/08 04:40:31;;;;;;;0.00;0.00;;;3.00;99.90;;;;;;5023862;28;20128;-63
2022/04/08 04:42:57;;;;;;;0.00;0.00;;;3.00;99.90;;;;;;5023102;28;20523;-63
2022/04/08 04:45:24;;;;;;;1.20;0.70;;;2.90;99.90;;;;;;5022090;28;20071;-63
2022/04/08 04:47:50;;;;;;;0.00;0.00;;;4.10;99.90;;;;;;5037863;28;20121;-64
2022/04/08 04:50:15;;;;;;;0.00;0.00;;;2.70;99.90;;;;;;5023559;28;20063;-64
2022/04/08 04:52:41;;;;;;;0.00;0.00;;;2.70;99.90;;;;;;5022260;28;20084;-63
2022/04/08 04:55:07;;;;;;;0.00;0.00;;;2.70;99.90;;;;;;5020922;28;20088;-64
2022/04/08 04:57:34;;;;;;;0.00;0.00;;;2.70;99.90;;;;;;5023650;28;20057;-66
2022/04/08 05:00:00;;;;;;;0.00;0.00;;;2.70;99.90;;;;;;5022681;28;20108;-64
2022/04/08 05:02:25;;;;;;;0.00;0.00;;;2.70;99.90;;;;;;5034117;28;20837;-63
2022/04/08 05:04:51;;;;;;;0.00;0.00;;;3.40;99.90;;;;;;5022256;28;20163;-63
2022/04/08 05:07:16;;;;;;;0.00;0.00;;;2.80;99.90;;;;;;5022912;28;20697;-64
2022/04/08 05:09:42;;;;;;;0.00;0.00;;;2.80;99.90;;;;;;5022541;28;20128;-63
2022/04/08 05:12:08;;;;;;;0.00;0.00;;;2.90;99.90;;;;;;5022449;28;20104;-64
2022/04/08 05:14:35;;;;;;;0.00;0.00;;;2.90;99.90;;;;;;5038667;28;20472;-63
2022/04/08 05:17:00;;;;;;;0.00;0.00;;;2.90;99.90;;;;;;5022654;28;20056;-63
2022/04/08 05:19:26;;;;;;;0.00;0.00;;;2.90;99.90;;;;;;5022903;28;20034;-63
2022/04/08 05:21:52;;;;;;;0.00;0.00;;;3.20;99.90;;;;;;5021414;28;20056;-63
2022/04/08 05:24:19;;;;;;;0.00;0.00;;;3.00;99.90;;;;;;5022907;28;20439;-63
2022/04/08 05:26:44;;;;;;;0.00;0.00;;;3.00;99.90;;;;;;5022339;28;20043;-62
2022/04/08 05:29:10;;;;;;;0.00;0.00;;;3.00;99.90;;;;;;5022332;28;20033;-64
2022/04/08 05:31:36;;;;;;;0.00;0.00;;;3.00;99.90;;;;;;5022333;28;20107;-63
2022/04/08 05:34:02;;;;;;;0.00;0.00;;;3.10;99.90;;;;;;5022777;28;20547;-64
2022/04/08 05:36:28;;;;;;;0.00;0.00;;;3.10;99.90;;;;;;5022722;28;20127;-64
2022/04/08 05:38:54;;;;;;;0.00;0.00;;;3.20;99.90;;;;;;5020901;28;20048;-64
2022/04/08 05:41:19;;;;;;;0.00;0.00;;;3.20;99.90;;;;;;5022712;28;20176;-64
2022/04/08 05:43:45;;;;;;;0.00;0.00;;;3.20;99.90;;;;;;5022077;28;20670;-63
2022/04/08 05:46:12;;;;;;;0.00;0.00;;;3.10;99.90;;;;;;5022129;28;20132;-63
2022/04/08 05:48:37;;;;;;;0.00;0.00;;;3.10;99.90;;;;;;5022018;28;20065;-64
2022/04/08 05:51:03;;;;;;;0.00;0.00;;;3.30;99.90;;;;;;5022430;28;20130;-64
2022/04/08 05:53:29;;;;;;;0.00;0.00;;;3.50;99.90;;;;;;5021924;28;20041;-63
2022/04/08 05:55:55;;;;;;;0.00;0.00;;;3.70;99.90;;;;;;5021202;28;20170;-63
2022/04/08 05:58:21;;;;;;;0.00;0.00;;;3.80;99.90;;;;;;5022342;28;20045;-63
2022/04/08 06:00:47;;;;;;;0.00;0.00;;;4.10;99.90;;;;;;5022544;28;20056;-63
2022/04/08 06:03:13;;;;;;;0.00;0.00;;;4.10;99.90;;;;;;5030859;28;20068;-65
2022/04/08 06:05:38;;;;;;;0.00;0.00;;;4.00;99.90;;;;;;5021243;28;20080;-64
2022/04/08 06:08:04;;;;;;;0.00;0.00;;;3.90;99.90;;;;;;5021255;28;20049;-63
2022/04/08 06:10:30;;;;;;;0.00;0.00;;;3.70;99.90;;;;;;5037104;28;20060;-63
2022/04/08 06:12:57;;;;;;;0.00;0.00;;;3.60;99.90;;;;;;5020771;28;20061;-64
2022/04/08 06:15:23;;;;;;;0.00;0.00;;;3.60;99.90;;;;;;5022063;28;20085;-63
2022/04/08 06:17:49;;;;;;;0.00;0.00;;;3.60;99.90;;;;;;5020434;28;20049;-63
2022/04/08 06:20:16;;;;;;;0.00;0.00;;;3.50;99.90;;;;;;5037078;28;20046;-63
2022/04/08 06:22:42;;;;;;;0.00;0.00;;;3.50;99.90;;;;;;5035511;28;20052;-63
2022/04/08 06:25:09;;;;;;;0.00;0.00;;;3.60;99.90;;;;;;5020035;28;20724;-64
2022/04/08 06:27:35;;;;;;;0.00;0.00;;;3.90;99.90;;;;;;5020627;28;20045;-64
2022/04/08 06:30:03;;;;;;;0.00;0.00;;;4.30;99.90;;;;;;5020003;28;20041;-63
2022/04/08 06:32:28;;;;;;;0.00;0.00;;;4.50;99.90;;;;;;5021660;28;20088;-63
2022/04/08 06:34:54;;;;;;;0.00;0.00;;;4.80;99.90;;;;;;5021304;28;20145;-64
2022/04/08 06:37:20;;;;;;;0.00;0.00;;;4.90;99.90;;;;;;5019642;28;20574;-64
2022/04/08 06:39:47;;;;;;;0.00;0.00;;;5.00;99.90;;;;;;5020582;28;20395;-63
2022/04/08 06:42:14;;;;;;;0.00;0.00;;;5.00;99.90;;;;;;5021371;28;20045;-63
2022/04/08 06:44:39;;;;;;;0.00;0.00;;;5.10;99.90;;;;;;5021197;28;20045;-61
2022/04/08 06:47:05;;;;;;;0.00;0.00;;;5.10;99.90;;;;;;5020839;28;20041;-62
2022/04/08 06:49:30;;;;;;;0.00;0.00;;;5.10;99.90;;;;;;5021810;28;20077;-63
2022/04/08 06:51:58;;;;;;;0.00;0.00;;;5.20;99.90;;;;;;5020182;28;20501;-64
2022/04/08 06:54:24;;;;;;;0.00;0.00;;;5.40;99.90;;;;;;5021560;28;20536;-64
2022/04/08 06:56:51;;;;;;;0.00;0.00;;;5.10;99.90;;;;;;5020089;28;20041;-65
2022/04/08 06:59:17;;;;;;;0.00;0.00;;;5.40;99.90;;;;;;5021373;28;20080;-64
2022/04/08 07:01:42;;;;;;;0.00;0.00;;;5.50;99.90;;;;;;5026717;28;20135;-64
2022/04/08 07:04:08;;;;;;;0.00;0.00;;;5.60;99.90;;;;;;5024101;28;20120;-64
2022/04/08 07:06:34;;;;;;;0.00;0.00;;;5.70;99.90;;;;;;5020610;28;20042;-63
2022/04/08 07:09:00;;;;;;;0.00;0.00;;;5.80;99.90;;;;;;5020752;28;20621;-64
2022/04/08 07:11:25;;;;;;;0.00;0.00;;;5.60;99.90;;;;;;5020934;28;20092;-63
2022/04/08 07:13:51;;;;;;;0.00;0.00;;;5.70;99.90;;;;;;5020239;28;20049;-64
2022/04/08 07:16:16;;;;;;;0.00;0.00;;;5.70;99.90;;;;;;5021050;28;20552;-64
2022/04/08 07:18:42;;;;;;;0.00;0.00;;;5.70;99.90;;;;;;5020647;28;20038;-63
2022/04/08 07:21:09;;;;;;;0.00;0.00;;;5.70;99.90;;;;;;5019241;28;20183;-64
2022/04/08 07:23:36;;;;;;;0.00;0.00;;;6.00;99.90;;;;;;5020136;28;20053;-62
2022/04/08 07:26:02;;;;;;;0.00;0.00;;;6.10;99.90;;;;;;5021010;28;20104;-64
2022/04/08 07:28:28;;;;;;;0.00;0.00;;;6.10;99.90;;;;;;5019531;28;20125;-64
2022/04/08 07:30:54;;;;;;;0.00;0.00;;;6.20;99.90;;;;;;5020168;28;20615;-66
2022/04/08 07:33:19;;;;;;;0.00;0.00;;;6.40;99.90;;;;;;5021008;28;20124;-64
2022/04/08 07:35:45;;;;;;;0.00;0.00;;;6.00;99.90;;;;;;5020445;28;20041;-64
2022/04/08 07:38:11;;;;;;;0.00;0.00;;;6.10;99.90;;;;;;5020062;28;20112;-65
2022/04/08 07:40:36;;;;;;;0.10;0.10;;;6.50;99.90;;;;;;5023330;28;20786;-65
2022/04/08 07:43:02;;;;;;;0.00;0.00;;;6.50;99.90;;;;;;5039892;28;20056;-64
2022/04/08 07:45:29;;;;;;;0.00;0.00;;;6.90;99.90;;;;;;5024678;28;20048;-64
2022/04/08 07:47:57;;;;;;;0.00;0.00;;;6.60;99.90;;;;;;5038608;28;20045;-65
2022/04/08 07:50:23;;;;;;;0.00;0.00;;;6.40;99.90;;;;;;5037237;28;20080;-65
2022/04/08 07:52:48;;;;;;;0.10;0.10;;;7.10;99.90;;;;;;5042867;28;20084;-65
2022/04/08 07:55:14;;;;;;;0.00;0.00;;;6.40;99.90;;;;;;5043962;28;20052;-64
2022/04/08 07:57:47;;;;;;;0.00;0.00;;;6.60;99.90;;;;;;5043631;28;20041;-65
2022/04/08 08:00:14;;;;;;;0.00;0.00;;;6.70;99.90;;;;;;5044479;28;20041;-65
2022/04/08 08:02:41;;;;;;;0.00;0.00;;;6.70;99.90;;;;;;5034180;28;20431;-65
2022/04/08 08:05:07;;;;;;;0.00;0.00;;;6.60;99.90;;;;;;5023897;28;20327;-64
2022/04/08 08:07:57;;;;;;;0.00;0.00;;;6.60;99.90;;;;;;5038943;28;20569;-64
2022/04/08 08:10:24;;;;;;;0.00;0.00;;;7.00;99.90;;;;;;5023534;28;20072;-64
2022/04/08 08:12:51;;;;;;;0.05;0.05;;;7.40;99.90;;;;;;5023490;28;20049;-64
2022/04/08 08:15:18;;;;;;;0.00;0.00;;;7.00;99.90;;;;;;5024213;28;20047;-65
2022/04/08 08:17:45;;;;;;;0.00;0.00;;;6.80;99.90;;;;;;5021859;28;20045;-65
2022/04/08 08:20:13;;;;;;;0.00;0.00;;;6.50;99.90;;;;;;5023941;28;20072;-65
2022/04/08 08:22:41;;;;;;;0.00;0.00;;;6.50;99.90;;;;;;5023238;28;20060;-64
2022/04/08 08:25:07;;;;;;;0.00;0.00;;;6.30;99.90;;;;;;5038968;28;20045;-65
2022/04/08 08:27:42;;;;;;;0.00;0.00;;;6.20;99.90;;;;;;5022667;28;20092;-64
2022/04/08 08:30:12;;;;;;;0.00;0.00;;;6.10;99.90;;;;;;5024155;28;20052;-65
2022/04/08 08:32:39;;;;;;;0.00;0.00;;;6.20;99.90;;;;;;5023612;28;20053;-65
2022/04/08 08:35:09;;;;;;;0.10;0.10;;;6.20;99.90;;;;;;5022767;28;20199;-62
2022/04/08 08:37:35;;;;;;;0.00;0.00;;;6.50;99.90;;;;;;5021821;28;20611;-64
2022/04/08 08:40:01;;;;;;;0.00;0.00;;;6.50;99.90;;;;;;5022391;28;20125;-64
2022/04/08 08:42:28;;;;;;;0.00;0.00;;;6.60;99.90;;;;;;5023199;28;20057;-65
2022/04/08 08:44:54;;;;;;;0.00;0.00;;;6.90;99.90;;;;;;5023028;28;20041;-64
2022/04/08 08:47:20;;;;;;;0.00;0.00;;;7.00;99.90;;;;;;5023489;28;20064;-64
2022/04/08 08:49:49;;;;;;;0.00;0.00;;;7.20;99.90;;;;;;5022959;28;20375;-64
2022/04/08 08:52:18;;;;;;;0.00;0.00;;;7.50;99.90;;;;;;5022113;28;20612;-64
2022/04/08 08:54:45;;;;;;;0.00;0.00;;;7.30;99.90;;;;;;5023315;28;20061;-64
2022/04/08 08:57:13;;;;;;;0.00;0.00;;;7.20;99.90;;;;;;5022674;28;20051;-65
2022/04/08 08:59:39;;;;;;;0.00;0.00;;;7.60;99.90;;;;;;5027426;28;20075;-64
2022/04/08 09:02:05;;;;;;;0.00;0.00;;;8.10;99.90;;;;;;5037020;28;20076;-62
2022/04/08 09:04:30;;;;;;;0.00;0.00;;;8.20;99.90;;;;;;5020738;28;20593;-64
2022/04/08 09:06:57;;;;;;;0.00;0.00;;;8.10;99.90;;;;;;5035272;28;20045;-64
2022/04/08 09:09:32;;;;;;;0.00;0.00;;;8.20;99.90;;;;;;5041529;28;20593;-64
2022/04/08 09:12:10;;;;;;;0.00;0.00;;;8.60;99.90;;;;;;5038649;28;20095;-65
2022/04/08 09:14:35;;;;;;;0.00;0.00;;;9.00;99.90;;;;;;5041569;28;20048;-65
2022/04/08 09:17:02;;;;;;;0.00;0.00;;;8.70;99.90;;;;;;5041924;28;20049;-64
2022/04/08 09:19:35;;;;;;;0.00;0.00;;;8.50;99.90;;;;;;5032948;28;20041;-64
2022/04/08 09:22:01;;;;;;;0.00;0.00;;;8.60;99.90;;;;;;5030388;28;20136;-65
2022/04/08 09:24:27;;;;;;;0.00;0.00;;;9.00;99.90;;;;;;5031016;28;20136;-64
2022/04/08 09:26:56;;;;;;;0.47;0.40;;;8.50;99.90;;;;;;5031793;28;20175;-64
2022/04/08 09:29:23;;;;;;;0.00;0.00;;;8.10;99.90;;;;;;5029289;28;20078;-64
2022/04/08 09:31:50;;;;;;;0.00;0.00;;;7.70;99.90;;;;;;5030477;28;20115;-64
2022/04/08 09:34:16;;;;;;;0.00;0.00;;;7.30;99.90;;;;;;5042193;28;20056;-64
2022/04/08 09:36:43;;;;;;;0.00;0.00;;;7.00;99.90;;;;;;5040912;28;20033;-64
2022/04/08 09:39:10;;;;;;;0.00;0.00;;;7.10;99.90;;;;;;5041873;28;20159;-65
2022/04/08 09:41:42;;;;;;;0.00;0.00;;;7.40;99.90;;;;;;5042010;28;20063;-64
2022/04/08 09:44:09;;;;;;;0.00;0.00;;;8.00;99.90;;;;;;5040321;28;20044;-64
2022/04/08 09:46:36;;;;;;;0.00;0.00;;;8.20;99.90;;;;;;5042402;28;20431;-65
2022/04/08 09:49:06;;;;;;;0.00;0.00;;;8.30;99.90;;;;;;5042411;28;20044;-65
2022/04/08 09:51:41;;;;;;;0.00;0.00;;;8.10;99.90;;;;;;5041559;28;20059;-65
2022/04/08 09:54:09;;;;;;;0.00;0.00;;;7.50;99.90;;;;;;5041808;28;20048;-66
2022/04/08 09:56:36;;;;;;;0.00;0.00;;;6.70;99.90;;;;;;5041945;28;20079;-66
2022/04/08 09:59:21;;;;;;;0.00;0.00;;;6.30;99.90;;;;;;5041513;28;20041;-66
2022/04/08 10:01:47;;;;;;;0.00;0.00;;;6.00;99.90;;;;;;5034580;28;20099;-66
2022/04/08 10:04:13;;;;;;;0.00;0.00;;;6.00;99.90;;;;;;5025454;28;20045;-66
2022/04/08 10:06:42;;;;;;;0.00;0.00;;;6.40;99.90;;;;;;5019601;28;20320;-67
2022/04/08 10:09:10;;;;;;;0.00;0.00;;;7.20;99.90;;;;;;5021874;28;20060;-66
2022/04/08 10:11:44;;;;;;;0.00;0.00;;;7.70;99.90;;;;;;5021748;28;20103;-66
2022/04/08 10:14:42;;;;;;;0.00;0.00;;;8.00;99.90;;;;;;5021469;28;20421;-66
2022/04/08 10:17:09;;;;;;;0.00;0.00;;;7.80;99.90;;;;;;5021674;28;20041;-66
2022/04/08 10:19:35;;;;;;;0.00;0.00;;;7.80;99.90;;;;;;5022081;28;20081;-66
2022/04/08 10:22:00;;;;;;;0.00;0.00;;;7.40;99.90;;;;;;5019631;28;20211;-66
2022/04/08 10:24:30;;;;;;;0.00;0.00;;;7.10;99.90;;;;;;5037012;28;20099;-66
2022/04/08 10:27:09;;;;;;;0.00;0.00;;;6.80;99.90;;;;;;5020806;28;20084;-66
2022/04/08 10:29:38;;;;;;;0.00;0.00;;;6.80;99.90;;;;;;5020342;28;20080;-67
2022/04/08 10:32:13;;;;;;;0.00;0.00;;;7.00;99.90;;;;;;5020323;28;20485;-65
2022/04/08 10:34:39;;;;;;;0.00;0.00;;;7.20;99.90;;;;;;5021397;28;20683;-66
2022/04/08 10:37:20;;;;;;;0.00;0.00;;;6.90;99.90;;;;;;5021112;28;20084;-66
2022/04/08 10:39:59;;;;;;;0.00;0.00;;;7.10;99.90;;;;;;5020829;28;20748;-65
2022/04/08 10:42:27;;;;;;;0.00;0.00;;;7.70;99.90;;;;;;5021606;28;20053;-66
2022/04/08 10:44:53;;;;;;;0.20;0.20;;;7.90;99.90;;;;;;5020595;28;20041;-66
2022/04/08 10:47:21;;;;;;;0.00;0.00;;;8.60;99.90;;;;;;5021082;28;20047;-66
2022/04/08 10:50:02;;;;;;;0.00;0.00;;;8.90;99.90;;;;;;5019317;28;20049;-66
2022/04/08 10:52:29;;;;;;;0.00;0.00;;;8.90;99.90;;;;;;5020359;28;20479;-66
2022/04/08 10:55:09;;;;;;;0.00;0.00;;;9.00;99.90;;;;;;5021107;28;20789;-66
2022/04/08 10:57:37;;;;;;;0.00;0.00;;;9.00;99.90;;;;;;5021272;28;20041;-66
2022/04/08 11:00:08;;;;;;;0.00;0.00;;;9.30;99.90;;;;;;5020937;28;20044;-62
2022/04/08 11:02:42;;;;;;;0.00;0.00;;;8.50;99.90;;;;;;5034055;28;20057;-64
2022/04/08 11:05:13;;;;;;;0.00;0.00;;;8.20;99.90;;;;;;5020986;28;20034;-65
2022/04/08 11:07:42;;;;;;;0.00;0.00;;;8.90;99.90;;;;;;5020430;28;20157;-66
2022/04/08 11:10:13;;;;;;;0.00;0.00;;;7.40;99.90;;;;;;5020829;28;20057;-65
2022/04/08 11:12:47;;;;;;;0.00;0.00;;;7.30;99.90;;;;;;5020540;28;20052;-65
2022/04/08 11:15:15;;;;;;;0.00;0.00;;;7.70;99.90;;;;;;5020764;28;20046;-65
2022/04/08 11:17:42;;;;;;;0.00;0.00;;;8.50;99.90;;;;;;5019347;28;20334;-65
2022/04/08 11:20:12;;;;;;;0.00;0.00;;;8.90;99.90;;;;;;5026729;28;20053;-65
2022/04/08 11:22:40;;;;;;;0.00;0.00;;;9.20;99.90;;;;;;5039465;28;20044;-65
2022/04/08 11:25:06;;;;;;;0.00;0.00;;;9.60;99.90;;;;;;5040723;28;20121;-65
2022/04/08 11:27:32;;;;;;;0.00;0.00;;;9.90;99.90;;;;;;5040641;28;20081;-64
2022/04/08 11:29:57;;;;;;;0.00;0.00;;;10.10;99.90;;;;;;5038881;28;20751;-65
2022/04/08 11:32:30;;;;;;;17.27;0.45;;;10.20;99.90;;;;;;5040989;28;20131;-65
2022/04/08 11:34:56;;;;;;;0.00;0.00;;;9.70;99.90;;;;;;5040415;28;20051;-65
2022/04/08 11:37:28;;;;;;;0.00;0.00;;;9.50;99.90;;;;;;5039557;28;20041;-65
2022/04/08 11:39:57;;;;;;;0.00;0.00;;;9.20;99.90;;;;;;5040293;28;20051;-64
2022/04/08 11:42:23;;;;;;;0.00;0.00;;;9.00;99.90;;;;;;5040752;28;20474;-65
2022/04/08 11:44:49;;;;;;;0.00;0.00;;;8.70;99.90;;;;;;5039851;28;20095;-65
2022/04/08 11:47:17;;;;;;;0.00;0.00;;;8.80;99.90;;;;;;5040780;28;20077;-65
2022/04/08 11:49:43;;;;;;;0.00;0.00;;;8.50;99.90;;;;;;5040484;28;20045;-64
2022/04/08 11:52:09;;;;;;;0.00;0.00;;;8.60;99.90;;;;;;5039246;28;20068;-65
2022/04/08 11:54:39;;;;;;;0.00;0.00;;;8.40;99.90;;;;;;5040996;28;20134;-65
2022/04/08 11:57:05;;;;;;;0.00;0.00;;;8.70;99.90;;;;;;5039432;28;20052;-65
2022/04/08 11:59:32;;;;;;;0.00;0.00;;;9.30;99.90;;;;;;5041116;28;20045;-64
2022/04/08 12:01:59;;;;;;;0.00;0.00;;;9.40;99.90;;;;;;5033250;28;20212;-65
2022/04/08 12:04:25;;;;;;;0.00;0.00;;;10.40;99.90;;;;;;5005964;28;20057;-64
2022/04/08 12:06:51;;;;;;;0.00;0.00;;;9.40;99.90;;;;;;5019505;28;20404;-64
2022/04/08 12:09:22;;;;;;;0.00;0.00;;;9.80;99.90;;;;;;5019472;28;20057;-65
2022/04/08 12:11:48;;;;;;;0.00;0.00;;;9.70;99.90;;;;;;5020345;28;20213;-65
2022/04/08 12:14:15;;;;;;;0.00;0.00;;;10.00;99.90;;;;;;5020889;28;20051;-65
2022/04/08 12:16:44;;;;;;;0.10;0.10;;;10.00;99.90;;;;;;5018136;28;20045;-65
2022/04/08 12:19:10;;;;;;;0.00;0.00;;;10.00;99.90;;;;;;5020597;28;20064;-64
2022/04/08 12:21:39;;;;;;;0.00;0.00;;;10.00;99.90;;;;;;5034676;28;20037;-64
2022/04/08 12:24:07;;;;;;;0.00;0.00;;;10.10;99.90;;;;;;5020170;28;20050;-62
2022/04/08 12:26:34;;;;;;;0.00;0.00;;;10.30;99.90;;;;;;5022308;28;20125;-64
2022/04/08 12:29:12;;;;;;;0.00;0.00;;;10.80;99.90;;;;;;5024070;28;20056;-64
2022/04/08 12:31:46;;;;;;;0.00;0.00;;;9.90;99.90;;;;;;5023343;28;20045;-64
2022/04/08 12:34:11;;;;;;;0.00;0.00;;;10.40;99.90;;;;;;5023771;28;20048;-64
2022/04/08 12:36:37;;;;;;;0.00;0.00;;;10.70;99.90;;;;;;5021508;28;20518;-64
2022/04/08 12:39:03;;;;;;;0.00;0.00;;;10.50;99.90;;;;;;5023325;28;20099;-64
2022/04/08 12:41:29;;;;;;;0.00;0.00;;;10.30;99.90;;;;;;5023497;28;20047;-64
2022/04/08 12:43:57;;;;;;;0.00;0.00;;;10.30;99.90;;;;;;5023229;28;20744;-64
2022/04/08 12:46:22;;;;;;;0.05;0.05;;;10.20;99.90;;;;;;5038829;28;20467;-64
2022/04/08 12:48:48;;;;;;;0.47;0.47;;;10.30;99.90;;;;;;5022694;28;20033;-64
2022/04/08 12:51:14;;;;;;;0.03;0.03;;;10.00;99.90;;;;;;5023074;28;20115;-65
2022/04/08 12:53:40;;;;;;;0.00;0.00;;;10.20;99.90;;;;;;5023222;28;20033;-64